Time;durP1;ratioP1;P1;durP2;ratioP2;P2;SDS_P1;SDS_P2;PMS_P1;PMS_P2;Temp;Humidity;BMP_temperature;BMP_pressure;BME280_temperature;BME280_humidity;BME280_pressure;Samples;Min_cycle;Max_cycle;Signal;HPM_P1;HPM_P2
2023/05/01 00:08:04;;;;;;;;;;;;;;;11.17;100.00;97635.91;18562245;32;19983;-57
2023/05/01 00:18:07;;;;;;;;;;;;;;;11.15;100.00;97626.44;18561790;32;20272;-56
2023/05/01 00:28:09;;;;;;;;;;;;;;;11.10;100.00;97621.88;18561456;32;19953;-56
2023/05/01 00:38:12;;;;;;;;;;;;;;;11.07;100.00;97619.69;18561310;32;19953;-57
2023/05/01 00:48:15;;;;;;;;;;;;;;;11.01;100.00;97601.88;18560860;32;19992;-56
2023/05/01 00:58:17;;;;;;;;;;;;;;;10.97;100.00;97598.09;18567413;32;19963;-55
2023/05/01 01:08:22;;;;;;;;;;;;;;;10.94;100.00;97591.31;18573148;32;19961;-56
2023/05/01 01:18:25;;;;;;;;;;;;;;;10.91;100.00;97583.75;18572877;32;19964;-56
2023/05/01 01:28:27;;;;;;;;;;;;;;;10.87;100.00;97579.16;18557518;32;20355;-55
2023/05/01 01:38:35;;;;;;;;;;;;;;;10.84;100.00;97565.09;18571076;32;19971;-55
2023/05/01 01:48:41;;;;;;;;;;;;;;;10.81;100.00;97568.38;18570805;31;19983;-57
2023/05/01 01:58:44;;;;;;;;;;;;;;;10.77;100.00;97574.59;18556261;32;19971;-57
2023/05/01 02:08:47;;;;;;;;;;;;;;;10.75;100.00;97566.75;18568934;32;20013;-56
2023/05/01 02:18:50;;;;;;;;;;;;;;;10.64;100.00;97560.53;18569775;32;20337;-57
2023/05/01 02:28:53;;;;;;;;;;;;;;;10.67;100.00;97562.72;18568814;32;19948;-56
2023/05/01 02:38:56;;;;;;;;;;;;;;;10.64;100.00;97568.66;18567554;32;19956;-56
2023/05/01 02:49:00;;;;;;;;;;;;;;;10.62;100.00;97570.00;18567134;32;19964;-56
2023/05/01 02:59:02;;;;;;;;;;;;;;;10.65;100.00;97553.25;18566417;32;20250;-55
2023/05/01 03:09:05;;;;;;;;;;;;;;;10.64;100.00;97551.62;18566146;32;19984;-56
2023/05/01 03:19:07;;;;;;;;;;;;;;;10.65;100.00;97554.06;18564450;32;19963;-56
2023/05/01 03:29:12;;;;;;;;;;;;;;;10.65;100.00;97540.53;18550486;32;20264;-55
2023/05/01 03:39:14;;;;;;;;;;;;;;;10.63;100.00;97529.19;18563766;32;20324;-56
2023/05/01 03:49:17;;;;;;;;;;;;;;;10.60;100.00;97529.72;18563587;32;19990;-54
2023/05/01 03:59:19;;;;;;;;;;;;;;;10.57;100.00;97540.28;18562915;32;20302;-56
2023/05/01 04:09:22;;;;;;;;;;;;;;;10.62;100.00;97540.25;18562352;32;19960;-54
2023/05/01 04:19:24;;;;;;;;;;;;;;;10.64;100.00;97530.00;18547645;32;19967;-55
2023/05/01 04:29:27;;;;;;;;;;;;;;;10.64;100.00;97535.41;18546601;32;20005;-55
2023/05/01 04:39:29;;;;;;;;;;;;;;;10.65;100.00;97537.03;18560928;32;19976;-54
2023/05/01 04:49:31;;;;;;;;;;;;;;;10.68;100.00;97537.28;18560935;32;19949;-54
2023/05/01 04:59:34;;;;;;;;;;;;;;;10.71;100.00;97545.94;18546579;32;19991;-52
2023/05/01 05:09:36;;;;;;;;;;;;;;;10.73;100.00;97547.28;18560283;32;19953;-53
2023/05/01 05:19:39;;;;;;;;;;;;;;;10.76;100.00;97562.97;18559977;32;19967;-54
2023/05/01 05:29:42;;;;;;;;;;;;;;;10.90;100.00;97559.69;18559945;32;19969;-52
2023/05/01 05:39:44;;;;;;;;;;;;;;;11.04;100.00;97557.22;18559110;32;20272;-54
2023/05/01 05:49:47;;;;;;;;;;;;;;;11.05;100.00;97572.38;18570513;32;19957;-52
2023/05/01 05:59:50;;;;;;;;;;;;;;;11.08;100.00;97575.31;18570536;32;19949;-54
2023/05/01 06:09:52;;;;;;;;;;;;;;;11.17;100.00;97576.38;18569629;32;19965;-55
2023/05/01 06:19:55;;;;;;;;;;;;;;;11.24;100.00;97580.69;18568806;31;20280;-54
2023/05/01 06:29:57;;;;;;;;;;;;;;;11.29;100.00;97577.94;18568543;32;19967;-54
2023/05/01 06:40:00;;;;;;;;;;;;;;;11.27;100.00;97585.56;18567425;32;19961;-54
2023/05/01 06:50:04;;;;;;;;;;;;;;;11.32;100.00;97599.06;18553156;32;19961;-55
2023/05/01 07:00:09;;;;;;;;;;;;;;;11.38;100.00;97607.97;18566463;32;19971;-53
2023/05/01 07:10:11;;;;;;;;;;;;;;;11.45;100.00;97613.91;18565859;32;19953;-54
2023/05/01 07:20:15;;;;;;;;;;;;;;;11.58;100.00;97616.00;18550823;32;19985;-54
2023/05/01 07:30:19;;;;;;;;;;;;;;;11.81;100.00;97619.97;18564772;32;19976;-55
2023/05/01 07:40:21;;;;;;;;;;;;;;;12.12;100.00;97617.09;18564444;32;19953;-51
2023/05/01 07:50:24;;;;;;;;;;;;;;;12.33;100.00;97619.66;18563515;32;20371;-54
2023/05/01 08:00:26;;;;;;;;;;;;;;;12.39;100.00;97615.84;18562903;32;20292;-55
2023/05/01 08:10:29;;;;;;;;;;;;;;;12.74;100.00;97619.31;18561671;31;19964;-53
2023/05/01 08:20:31;;;;;;;;;;;;;;;13.12;100.00;97622.22;18562639;32;19956;-54
2023/05/01 08:30:34;;;;;;;;;;;;;;;13.45;100.00;97618.91;18561934;32;19961;-54
2023/05/01 08:40:40;;;;;;;;;;;;;;;13.48;100.00;97638.13;18561403;32;20407;-54
2023/05/01 08:50:44;;;;;;;;;;;;;;;13.36;100.00;97635.00;18560989;32;19965;-55
2023/05/01 09:00:47;;;;;;;;;;;;;;;13.43;100.00;97631.94;18546092;32;20059;-54
2023/05/01 09:10:51;;;;;;;;;;;;;;;13.98;100.00;97632.34;18560230;32;19953;-56
2023/05/01 09:20:54;;;;;;;;;;;;;;;14.97;100.00;97631.66;18567931;32;19975;-55
2023/05/01 09:30:57;;;;;;;;;;;;;;;15.91;100.00;97645.94;18572164;32;20250;-56
2023/05/01 09:41:03;;;;;;;;;;;;;;;16.40;100.00;97649.75;18506316;32;19976;-55
2023/05/01 09:51:25;;;;;;;;;;;;;;;16.80;100.00;97651.81;18504356;32;19965;-55
2023/05/01 10:01:41;;;;;;;;;;;;;;;17.30;100.00;97644.56;18505151;32;19968;-56
2023/05/01 10:11:53;;;;;;;;;;;;;;;18.00;100.00;97650.28;18505010;32;19985;-56
2023/05/01 10:21:55;;;;;;;;;;;;;;;18.42;100.00;97650.62;18504025;32;19978;-56
2023/05/01 10:31:58;;;;;;;;;;;;;;;18.50;100.00;97658.03;18509267;31;19987;-57
2023/05/01 10:42:04;;;;;;;;;;;;;;;18.59;100.00;97658.81;18567713;32;19990;-57
2023/05/01 10:52:06;;;;;;;;;;;;;;;18.39;100.00;97645.78;18567068;31;20003;-56
2023/05/01 11:02:20;;;;;;;;;;;;;;;18.59;100.00;97655.28;18551875;32;19967;-57
2023/05/01 11:12:41;;;;;;;;;;;;;;;18.97;100.00;97643.66;18565930;32;19952;-57
2023/05/01 11:22:47;;;;;;;;;;;;;;;19.47;100.00;97632.06;18565301;32;20011;-57
2023/05/01 11:32:49;;;;;;;;;;;;;;;19.84;100.00;97631.56;18564223;31;19989;-57
2023/05/01 11:43:05;;;;;;;;;;;;;;;20.44;100.00;97626.75;18548627;31;20002;-57
2023/05/01 11:53:16;;;;;;;;;;;;;;;20.75;100.00;97630.25;18549125;32;20020;-58
2023/05/01 12:03:21;;;;;;;;;;;;;;;20.60;92.32;97623.41;18562788;32;20265;-57
2023/05/01 12:13:25;;;;;;;;;;;;;;;20.83;93.32;97604.66;18548542;32;20258;-57
2023/05/01 12:23:32;;;;;;;;;;;;;;;21.28;83.00;97617.56;18561782;32;19980;-57
2023/05/01 12:33:35;;;;;;;;;;;;;;;21.81;84.74;97617.69;18561007;31;19953;-57
2023/05/01 12:43:37;;;;;;;;;;;;;;;21.73;83.08;97607.59;18560864;32;19984;-57
2023/05/01 12:53:42;;;;;;;;;;;;;;;21.48;84.32;97602.06;18539725;32;19964;-57
2023/05/01 13:03:44;;;;;;;;;;;;;;;21.43;83.84;97605.09;18573483;32;19999;-57
2023/05/01 13:13:48;;;;;;;;;;;;;;;22.51;74.61;97602.06;18558903;32;19974;-57
2023/05/01 13:23:56;;;;;;;;;;;;;;;22.67;71.54;97597.41;18572136;32;20012;-57
2023/05/01 13:34:03;;;;;;;;;;;;;;;22.23;69.94;97586.31;18571592;31;19960;-57
2023/05/01 13:44:05;;;;;;;;;;;;;;;21.31;76.57;97586.63;18543784;32;19996;-57
2023/05/01 13:54:11;;;;;;;;;;;;;;;20.69;71.92;97576.66;18555962;32;19968;-57
2023/05/01 14:04:16;;;;;;;;;;;;;;;20.46;59.65;97580.56;18568515;32;19956;-57
2023/05/01 14:14:18;;;;;;;;;;;;;;;20.88;68.08;97589.88;18569378;32;19959;-57
2023/05/01 14:24:21;;;;;;;;;;;;;;;20.05;56.42;97576.72;18554645;32;20286;-57
2023/05/01 14:34:24;;;;;;;;;;;;;;;19.10;72.86;97559.63;18567568;31;20317;-57
2023/05/01 14:44:29;;;;;;;;;;;;;;;18.15;68.89;97580.59;18567793;32;19965;-57
2023/05/01 14:54:34;;;;;;;;;;;;;;;17.87;91.21;97580.84;18552291;32;19953;-57
2023/05/01 15:04:38;;;;;;;;;;;;;;;18.01;96.23;97576.06;18552696;32;19949;-57
2023/05/01 15:14:41;;;;;;;;;;;;;;;19.22;74.60;97578.13;18565811;32;19949;-57
2023/05/01 15:24:44;;;;;;;;;;;;;;;20.48;72.43;97580.22;18550932;32;19952;-57
2023/05/01 15:34:48;;;;;;;;;;;;;;;20.24;69.73;97598.19;18564398;31;19985;-56
2023/05/01 15:44:51;;;;;;;;;;;;;;;19.71;79.41;97588.69;18563518;32;20246;-57
2023/05/01 15:54:55;;;;;;;;;;;;;;;19.15;79.07;97591.56;18563290;32;19948;-56
2023/05/01 16:04:58;;;;;;;;;;;;;;;18.92;81.26;97597.25;18548325;32;19956;-57
2023/05/01 16:15:02;;;;;;;;;;;;;;;18.50;90.68;97608.75;18561820;31;19957;-57
2023/05/01 16:25:06;;;;;;;;;;;;;;;18.10;92.92;97606.16;18561241;32;20015;-56
2023/05/01 16:35:09;;;;;;;;;;;;;;;18.17;96.21;97612.00;18561127;31;19956;-56
2023/05/01 16:45:11;;;;;;;;;;;;;;;18.68;93.12;97627.88;18546540;32;19945;-56
2023/05/01 16:55:14;;;;;;;;;;;;;;;18.64;94.16;97635.97;18546843;32;19956;-57
2023/05/01 17:05:17;;;;;;;;;;;;;;;17.88;97.72;97646.19;18559830;32;20337;-56
2023/05/01 17:15:19;;;;;;;;;;;;;;;17.36;100.00;97638.63;18546115;32;20254;-55
2023/05/01 17:25:22;;;;;;;;;;;;;;;16.87;100.00;97632.22;18545461;32;20355;-56
2023/05/01 17:35:25;;;;;;;;;;;;;;;16.46;100.00;97625.06;18545023;31;19948;-56
2023/05/01 17:45:27;;;;;;;;;;;;;;;16.01;100.00;97640.25;18570597;32;20289;-55
2023/05/01 17:55:30;;;;;;;;;;;;;;;15.63;100.00;97636.94;18556499;32;20272;-55
2023/05/01 18:05:32;;;;;;;;;;;;;;;15.20;100.00;97641.56;18570244;32;19998;-55
2023/05/01 18:15:35;;;;;;;;;;;;;;;14.82;100.00;97644.41;18555427;32;19953;-55
2023/05/01 18:25:38;;;;;;;;;;;;;;;14.41;100.00;97661.37;18541905;32;20024;-56
2023/05/01 18:35:41;;;;;;;;;;;;;;;14.07;100.00;97665.12;18554373;31;19956;-55
2023/05/01 18:45:43;;;;;;;;;;;;;;;13.79;100.00;97661.41;18553773;32;19969;-56
2023/05/01 18:55:46;;;;;;;;;;;;;;;13.58;100.00;97677.16;18566887;31;19949;-56
2023/05/01 19:05:48;;;;;;;;;;;;;;;13.38;100.00;97679.78;18566510;32;20343;-56
2023/05/01 19:15:52;;;;;;;;;;;;;;;13.21;100.00;97695.72;18565740;32;19960;-56
2023/05/01 19:25:54;;;;;;;;;;;;;;;13.03;100.00;97705.34;18550925;32;19983;-55
2023/05/01 19:35:56;;;;;;;;;;;;;;;12.86;100.00;97714.72;18564729;31;19990;-56
2023/05/01 19:45:59;;;;;;;;;;;;;;;12.70;100.00;97716.75;18550044;32;20036;-55
2023/05/01 19:56:01;;;;;;;;;;;;;;;12.65;100.00;97726.84;18563667;32;19944;-55
2023/05/01 20:06:05;;;;;;;;;;;;;;;12.63;100.00;97743.38;18562743;32;19956;-55
2023/05/01 20:16:08;;;;;;;;;;;;;;;12.54;100.00;97764.88;18562247;32;20000;-55
2023/05/01 20:26:11;;;;;;;;;;;;;;;12.46;100.00;97783.66;18534560;32;19964;-54
2023/05/01 20:36:16;;;;;;;;;;;;;;;12.45;100.00;97801.81;18546731;32;19989;-56
2023/05/01 20:46:18;;;;;;;;;;;;;;;12.44;100.00;97823.78;18560958;31;19976;-56
2023/05/01 20:56:22;;;;;;;;;;;;;;;12.39;100.00;97821.91;18560597;32;19952;-54
2023/05/01 21:06:26;;;;;;;;;;;;;;;12.08;100.00;97835.56;18560492;32;19961;-53
2023/05/01 21:16:29;;;;;;;;;;;;;;;11.73;100.00;97839.97;18568701;32;20000;-54
2023/05/01 21:26:32;;;;;;;;;;;;;;;11.49;100.00;97854.03;18572744;32;19952;-53
2023/05/01 21:36:41;;;;;;;;;;;;;;;11.32;100.00;97875.19;18571560;32;20007;-54
2023/05/01 21:46:44;;;;;;;;;;;;;;;11.21;100.00;97885.19;18571311;32;19997;-48
2023/05/01 21:56:47;;;;;;;;;;;;;;;11.18;100.00;97889.25;18570965;32;19982;-54
2023/05/01 22:06:49;;;;;;;;;;;;;;;11.13;100.00;97891.94;18556092;32;20399;-53
2023/05/01 22:16:52;;;;;;;;;;;;;;;11.06;100.00;97893.25;18569657;32;19985;-57
2023/05/01 22:26:54;;;;;;;;;;;;;;;10.94;100.00;97894.31;18568355;32;20028;-56
2023/05/01 22:36:57;;;;;;;;;;;;;;;10.84;100.00;97889.69;18568058;32;19953;-55
2023/05/01 22:46:59;;;;;;;;;;;;;;;10.75;100.00;97891.28;18567955;32;19988;-54
2023/05/01 22:57:02;;;;;;;;;;;;;;;10.66;100.00;97900.97;18567118;32;19963;-56
2023/05/01 23:07:05;;;;;;;;;;;;;;;10.65;100.00;97904.78;18566542;32;19956;-55
2023/05/01 23:17:08;;;;;;;;;;;;;;;10.63;100.00;97910.47;18565822;32;20013;-56
2023/05/01 23:27:13;;;;;;;;;;;;;;;10.68;100.00;97918.56;18565185;32;19952;-56
2023/05/01 23:37:16;;;;;;;;;;;;;;;10.64;100.00;97927.50;18563452;32;19960;-55
2023/05/01 23:47:19;;;;;;;;;;;;;;;10.62;100.00;97921.53;18563858;32;20343;-56
2023/05/01 23:57:21;;;;;;;;;;;;;;;10.62;100.00;97924.22;18563199;32;19996;-55
